sensor_id;sensor_type;location;lat;lon;timestamp;pressure;altitude;pressure_sealevel;temperature;humidity
76404;BME280;65232;48.358;2.122;2023-03-24T00:00:00;99623.91;;;13.92;79.61
76404;BME280;65232;48.358;2.122;2023-03-24T00:00:31;99629.94;;;13.94;79.47
76404;BME280;65232;48.358;2.122;2023-03-24T00:00:59;99618.16;;;13.95;79.42
76404;BME280;65232;48.358;2.122;2023-03-24T00:01:25;99622.50;;;13.96;79.46
76404;BME280;65232;48.358;2.122;2023-03-24T00:01:51;99621.66;;;13.95;79.77
76404;BME280;65232;48.358;2.122;2023-03-24T00:02:17;99626.59;;;13.92;79.57
76404;BME280;65232;48.358;2.122;2023-03-24T00:02:43;99625.44;;;13.86;80.06
76404;BME280;65232;48.358;2.122;2023-03-24T00:03:10;99628.47;;;13.83;80.35
76404;BME280;65232;48.358;2.122;2023-03-24T00:03:36;99624.09;;;13.82;80.01
76404;BME280;65232;48.358;2.122;2023-03-24T00:04:02;99630.88;;;13.78;80.62
76404;BME280;65232;48.358;2.122;2023-03-24T00:04:27;99620.41;;;13.83;80.27
76404;BME280;65232;48.358;2.122;2023-03-24T00:04:54;99626.28;;;13.87;79.87
76404;BME280;65232;48.358;2.122;2023-03-24T00:05:22;99640.56;;;13.87;80.20
76404;BME280;65232;48.358;2.122;2023-03-24T00:06:00;99631.16;;;13.83;80.42
76404;BME280;65232;48.358;2.122;2023-03-24T00:06:28;99634.50;;;13.85;80.08
76404;BME280;65232;48.358;2.122;2023-03-24T00:06:59;99636.34;;;13.85;80.52
76404;BME280;65232;48.358;2.122;2023-03-24T00:07:28;99639.41;;;13.82;80.28
76404;BME280;65232;48.358;2.122;2023-03-24T00:07:54;99634.03;;;13.82;80.37
76404;BME280;65232;48.358;2.122;2023-03-24T00:08:22;99635.41;;;13.77;80.90
76404;BME280;65232;48.358;2.122;2023-03-24T00:08:48;99630.03;;;13.77;80.93
76404;BME280;65232;48.358;2.122;2023-03-24T00:09:15;99640.63;;;13.79;80.92
76404;BME280;65232;48.358;2.122;2023-03-24T00:09:41;99635.69;;;13.83;81.11
76404;BME280;65232;48.358;2.122;2023-03-24T00:10:11;99644.09;;;13.88;80.78
76404;BME280;65232;48.358;2.122;2023-03-24T00:10:37;99645.28;;;13.85;80.78
76404;BME280;65232;48.358;2.122;2023-03-24T00:11:05;99634.34;;;13.87;81.18
76404;BME280;65232;48.358;2.122;2023-03-24T00:11:31;99637.53;;;13.90;80.63
76404;BME280;65232;48.358;2.122;2023-03-24T00:12:00;99629.97;;;13.86;80.83
76404;BME280;65232;48.358;2.122;2023-03-24T00:12:25;99635.75;;;13.74;81.37
76404;BME280;65232;48.358;2.122;2023-03-24T00:12:51;99619.44;;;13.76;81.19
76404;BME280;65232;48.358;2.122;2023-03-24T00:13:16;99635.03;;;13.81;81.16
76404;BME280;65232;48.358;2.122;2023-03-24T00:13:41;99629.47;;;13.82;81.18
76404;BME280;65232;48.358;2.122;2023-03-24T00:14:07;99628.28;;;13.85;80.92
76404;BME280;65232;48.358;2.122;2023-03-24T00:14:37;99625.13;;;13.81;81.04
76404;BME280;65232;48.358;2.122;2023-03-24T00:15:07;99638.44;;;13.74;81.57
76404;BME280;65232;48.358;2.122;2023-03-24T00:15:33;99625.88;;;13.67;81.52
76404;BME280;65232;48.358;2.122;2023-03-24T00:16:00;99624.19;;;13.66;81.91
76404;BME280;65232;48.358;2.122;2023-03-24T00:16:26;99623.34;;;13.65;81.75
76404;BME280;65232;48.358;2.122;2023-03-24T00:16:51;99621.16;;;13.69;81.55
76404;BME280;65232;48.358;2.122;2023-03-24T00:17:19;99627.91;;;13.65;81.75
76404;BME280;65232;48.358;2.122;2023-03-24T00:17:50;99629.94;;;13.63;82.06
76404;BME280;65232;48.358;2.122;2023-03-24T00:18:15;99621.88;;;13.63;82.19
76404;BME280;65232;48.358;2.122;2023-03-24T00:18:41;99624.38;;;13.64;82.01
76404;BME280;65232;48.358;2.122;2023-03-24T00:19:08;99623.91;;;13.61;82.41
76404;BME280;65232;48.358;2.122;2023-03-24T00:19:35;99625.25;;;13.57;82.47
76404;BME280;65232;48.358;2.122;2023-03-24T00:20:06;99629.47;;;13.51;82.82
76404;BME280;65232;48.358;2.122;2023-03-24T00:20:32;99630.31;;;13.52;82.62
76404;BME280;65232;48.358;2.122;2023-03-24T00:20:58;99629.00;;;13.48;82.64
76404;BME280;65232;48.358;2.122;2023-03-24T00:21:25;99634.38;;;13.48;82.80
76404;BME280;65232;48.358;2.122;2023-03-24T00:21:50;99633.66;;;13.54;83.01
76404;BME280;65232;48.358;2.122;2023-03-24T00:22:20;99641.22;;;13.58;82.75
76404;BME280;65232;48.358;2.122;2023-03-24T00:22:50;99630.28;;;13.60;82.52
76404;BME280;65232;48.358;2.122;2023-03-24T00:23:20;99648.44;;;13.58;82.77
76404;BME280;65232;48.358;2.122;2023-03-24T00:23:46;99646.59;;;13.58;82.37
76404;BME280;65232;48.358;2.122;2023-03-24T00:24:13;99634.47;;;13.62;82.38
76404;BME280;65232;48.358;2.122;2023-03-24T00:24:40;99641.66;;;13.70;82.17
76404;BME280;65232;48.358;2.122;2023-03-24T00:25:06;99633.41;;;13.71;82.17
76404;BME280;65232;48.358;2.122;2023-03-24T00:25:31;99647.38;;;13.67;82.43
76404;BME280;65232;48.358;2.122;2023-03-24T00:26:09;99639.69;;;13.64;82.30
76404;BME280;65232;48.358;2.122;2023-03-24T00:26:38;99651.56;;;13.69;82.48
76404;BME280;65232;48.358;2.122;2023-03-24T00:27:04;99647.03;;;13.70;82.26
76404;BME280;65232;48.358;2.122;2023-03-24T00:27:31;99638.47;;;13.66;82.54
76404;BME280;65232;48.358;2.122;2023-03-24T00:28:01;99644.34;;;13.70;82.55
76404;BME280;65232;48.358;2.122;2023-03-24T00:28:32;99638.00;;;13.63;82.47
76404;BME280;65232;48.358;2.122;2023-03-24T00:28:58;99634.47;;;13.62;82.77
76404;BME280;65232;48.358;2.122;2023-03-24T00:29:24;99633.94;;;13.67;82.70
76404;BME280;65232;48.358;2.122;2023-03-24T00:29:49;99642.53;;;13.62;82.77
76404;BME280;65232;48.358;2.122;2023-03-24T00:30:16;99629.22;;;13.69;82.61
76404;BME280;65232;48.358;2.122;2023-03-24T00:30:42;99642.00;;;13.67;82.67
76404;BME280;65232;48.358;2.122;2023-03-24T00:31:16;99642.84;;;13.67;82.81
76404;BME280;65232;48.358;2.122;2023-03-24T00:31:42;99646.06;;;13.63;82.81
76404;BME280;65232;48.358;2.122;2023-03-24T00:32:08;99637.00;;;13.56;83.25
76404;BME280;65232;48.358;2.122;2023-03-24T00:32:34;99646.41;;;13.60;83.16
76404;BME280;65232;48.358;2.122;2023-03-24T00:33:03;99637.84;;;13.56;83.19
76404;BME280;65232;48.358;2.122;2023-03-24T00:33:30;99646.59;;;13.58;82.97
76404;BME280;65232;48.358;2.122;2023-03-24T00:33:57;99643.22;;;13.56;83.27
76404;BME280;65232;48.358;2.122;2023-03-24T00:34:23;99648.09;;;13.61;83.26
76404;BME280;65232;48.358;2.122;2023-03-24T00:34:48;99645.41;;;13.61;83.17
76404;BME280;65232;48.358;2.122;2023-03-24T00:35:15;99640.88;;;13.53;83.20
76404;BME280;65232;48.358;2.122;2023-03-24T00:35:42;99637.72;;;13.50;83.71
76404;BME280;65232;48.358;2.122;2023-03-24T00:36:10;99645.13;;;13.48;83.85
76404;BME280;65232;48.358;2.122;2023-03-24T00:36:38;99646.81;;;13.49;83.97
76404;BME280;65232;48.358;2.122;2023-03-24T00:37:04;99648.09;;;13.53;83.55
76404;BME280;65232;48.358;2.122;2023-03-24T00:37:30;99643.72;;;13.60;83.25
76404;BME280;65232;48.358;2.122;2023-03-24T00:37:56;99644.38;;;13.62;83.30
76404;BME280;65232;48.358;2.122;2023-03-24T00:38:21;99660.97;;;13.65;83.03
76404;BME280;65232;48.358;2.122;2023-03-24T00:38:47;99649.78;;;13.62;83.33
76404;BME280;65232;48.358;2.122;2023-03-24T00:39:14;99646.06;;;13.63;83.34
76404;BME280;65232;48.358;2.122;2023-03-24T00:39:42;99645.69;;;13.66;83.26
76404;BME280;65232;48.358;2.122;2023-03-24T00:40:11;99656.94;;;13.69;82.89
76404;BME280;65232;48.358;2.122;2023-03-24T00:40:37;99659.63;;;13.69;82.96
76404;BME280;65232;48.358;2.122;2023-03-24T00:41:03;99662.38;;;13.61;83.29
76404;BME280;65232;48.358;2.122;2023-03-24T00:41:29;99655.31;;;13.60;83.31
76404;BME280;65232;48.358;2.122;2023-03-24T00:41:55;99657.28;;;13.66;83.04
76404;BME280;65232;48.358;2.122;2023-03-24T00:42:23;99659.81;;;13.68;83.41
76404;BME280;65232;48.358;2.122;2023-03-24T00:42:49;99663.50;;;13.67;83.09
76404;BME280;65232;48.358;2.122;2023-03-24T00:43:16;99663.81;;;13.72;82.75
76404;BME280;65232;48.358;2.122;2023-03-24T00:43:41;99659.50;;;13.63;83.03
76404;BME280;65232;48.358;2.122;2023-03-24T00:44:08;99660.69;;;13.60;83.24
76404;BME280;65232;48.358;2.122;2023-03-24T00:44:35;99660.19;;;13.65;83.27
76404;BME280;65232;48.358;2.122;2023-03-24T00:45:01;99661.53;;;13.61;83.25
76404;BME280;65232;48.358;2.122;2023-03-24T00:45:28;99666.91;;;13.61;83.34
76404;BME280;65232;48.358;2.122;2023-03-24T00:46:00;99662.53;;;13.60;83.50
76404;BME280;65232;48.358;2.122;2023-03-24T00:46:26;99654.81;;;13.57;83.55
76404;BME280;65232;48.358;2.122;2023-03-24T00:46:52;99654.50;;;13.52;83.59
76404;BME280;65232;48.358;2.122;2023-03-24T00:47:20;99672.00;;;13.48;84.13
76404;BME280;65232;48.358;2.122;2023-03-24T00:47:50;99666.59;;;13.56;84.11
76404;BME280;65232;48.358;2.122;2023-03-24T00:48:18;99659.53;;;13.55;83.48
76404;BME280;65232;48.358;2.122;2023-03-24T00:48:44;99657.50;;;13.57;83.76
76404;BME280;65232;48.358;2.122;2023-03-24T00:49:11;99659.00;;;13.59;83.57
76404;BME280;65232;48.358;2.122;2023-03-24T00:49:37;99667.75;;;13.53;83.88
76404;BME280;65232;48.358;2.122;2023-03-24T00:50:14;99655.88;;;13.48;84.45
76404;BME280;65232;48.358;2.122;2023-03-24T00:50:45;99651.81;;;13.52;83.98
76404;BME280;65232;48.358;2.122;2023-03-24T00:51:11;99667.59;;;13.55;83.71
76404;BME280;65232;48.358;2.122;2023-03-24T00:51:39;99659.00;;;13.59;83.83
76404;BME280;65232;48.358;2.122;2023-03-24T00:52:05;99658.69;;;13.54;83.71
76404;BME280;65232;48.358;2.122;2023-03-24T00:52:34;99663.94;;;13.48;84.05
76404;BME280;65232;48.358;2.122;2023-03-24T00:53:00;99656.22;;;13.45;84.03
76404;BME280;65232;48.358;2.122;2023-03-24T00:53:26;99668.81;;;13.44;84.13
76404;BME280;65232;48.358;2.122;2023-03-24T00:53:53;99647.63;;;13.49;83.99
76404;BME280;65232;48.358;2.122;2023-03-24T00:54:22;99657.56;;;13.49;84.24
76404;BME280;65232;48.358;2.122;2023-03-24T00:54:52;99662.25;;;13.47;84.23
76404;BME280;65232;48.358;2.122;2023-03-24T00:55:22;99650.97;;;13.51;84.20
76404;BME280;65232;48.358;2.122;2023-03-24T00:55:48;99649.31;;;13.50;84.19
76404;BME280;65232;48.358;2.122;2023-03-24T00:56:16;99656.16;;;13.53;83.93
76404;BME280;65232;48.358;2.122;2023-03-24T00:56:41;99660.88;;;13.51;83.79
76404;BME280;65232;48.358;2.122;2023-03-24T00:57:08;99663.09;;;13.47;83.83
76404;BME280;65232;48.358;2.122;2023-03-24T00:57:36;99660.91;;;13.43;84.23
76404;BME280;65232;48.358;2.122;2023-03-24T00:58:05;99663.09;;;13.47;84.04
76404;BME280;65232;48.358;2.122;2023-03-24T00:58:30;99657.91;;;13.46;84.33
76404;BME280;65232;48.358;2.122;2023-03-24T00:58:58;99665.28;;;13.44;84.30
76404;BME280;65232;48.358;2.122;2023-03-24T00:59:26;99659.41;;;13.48;84.00
76404;BME280;65232;48.358;2.122;2023-03-24T00:59:55;99661.94;;;13.41;84.27
76404;BME280;65232;48.358;2.122;2023-03-24T01:00:24;99667.31;;;13.41;84.58
76404;BME280;65232;48.358;2.122;2023-03-24T01:00:53;99653.19;;;13.39;84.56
76404;BME280;65232;48.358;2.122;2023-03-24T01:01:19;99652.53;;;13.37;84.76
76404;BME280;65232;48.358;2.122;2023-03-24T01:01:46;99653.88;;;13.41;84.74
76404;BME280;65232;48.358;2.122;2023-03-24T01:02:18;99652.53;;;13.37;84.89
76404;BME280;65232;48.358;2.122;2023-03-24T01:02:50;99650.84;;;13.36;84.82
76404;BME280;65232;48.358;2.122;2023-03-24T01:03:18;99659.13;;;13.35;85.09
76404;BME280;65232;48.358;2.122;2023-03-24T01:03:47;99668.16;;;13.42;84.89
76404;BME280;65232;48.358;2.122;2023-03-24T01:04:14;99671.84;;;13.41;84.94
76404;BME280;65232;48.358;2.122;2023-03-24T01:04:40;99672.69;;;13.41;84.53
76404;BME280;65232;48.358;2.122;2023-03-24T01:05:11;99665.63;;;13.40;84.87
76404;BME280;65232;48.358;2.122;2023-03-24T01:05:39;99674.88;;;13.38;84.86
76404;BME280;65232;48.358;2.122;2023-03-24T01:06:05;99683.94;;;13.37;85.05
76404;BME280;65232;48.358;2.122;2023-03-24T01:06:32;99682.63;;;13.33;85.09
76404;BME280;65232;48.358;2.122;2023-03-24T01:07:00;99696.91;;;13.33;85.20
76404;BME280;65232;48.358;2.122;2023-03-24T01:07:27;99683.59;;;13.40;85.17
76404;BME280;65232;48.358;2.122;2023-03-24T01:07:58;99688.13;;;13.39;85.07
76404;BME280;65232;48.358;2.122;2023-03-24T01:08:27;99688.97;;;13.40;84.80
76404;BME280;65232;48.358;2.122;2023-03-24T01:08:53;99684.44;;;13.40;84.72
76404;BME280;65232;48.358;2.122;2023-03-24T01:09:19;99685.94;;;13.43;84.84
76404;BME280;65232;48.358;2.122;2023-03-24T01:09:48;99677.56;;;13.38;84.91
76404;BME280;65232;48.358;2.122;2023-03-24T01:10:22;99683.78;;;13.38;85.16
76404;BME280;65232;48.358;2.122;2023-03-24T01:10:51;99677.25;;;13.33;85.14
76404;BME280;65232;48.358;2.122;2023-03-24T01:11:21;99673.91;;;13.31;85.21
76404;BME280;65232;48.358;2.122;2023-03-24T01:11:47;99674.25;;;13.28;85.43
76404;BME280;65232;48.358;2.122;2023-03-24T01:12:12;99683.47;;;13.25;85.56
76404;BME280;65232;48.358;2.122;2023-03-24T01:12:38;99677.25;;;13.25;85.75
76404;BME280;65232;48.358;2.122;2023-03-24T01:13:03;99678.09;;;13.33;85.53
76404;BME280;65232;48.358;2.122;2023-03-24T01:13:29;99666.97;;;13.36;85.27
76404;BME280;65232;48.358;2.122;2023-03-24T01:13:55;99666.81;;;13.38;85.26
76404;BME280;65232;48.358;2.122;2023-03-24T01:14:20;99666.97;;;13.36;85.27
76404;BME280;65232;48.358;2.122;2023-03-24T01:14:47;99662.44;;;13.37;85.16
76404;BME280;65232;48.358;2.122;2023-03-24T01:15:19;99661.97;;;13.33;85.23
76404;BME280;65232;48.358;2.122;2023-03-24T01:15:45;99663.94;;;13.39;85.12
76404;BME280;65232;48.358;2.122;2023-03-24T01:16:11;99652.69;;;13.36;85.03
76404;BME280;65232;48.358;2.122;2023-03-24T01:16:37;99657.44;;;13.34;85.20
76404;BME280;65232;48.358;2.122;2023-03-24T01:17:03;99652.22;;;13.32;85.23
76404;BME280;65232;48.358;2.122;2023-03-24T01:17:31;99657.72;;;13.39;84.91
76404;BME280;65232;48.358;2.122;2023-03-24T01:17:58;99651.06;;;13.35;85.18
76404;BME280;65232;48.358;2.122;2023-03-24T01:18:26;99646.03;;;13.32;85.23
76404;BME280;65232;48.358;2.122;2023-03-24T01:18:52;99641.78;;;13.37;84.67
76404;BME280;65232;48.358;2.122;2023-03-24T01:19:17;99638.63;;;13.34;85.13
76404;BME280;65232;48.358;2.122;2023-03-24T01:19:42;99637.28;;;13.30;85.39
76404;BME280;65232;48.358;2.122;2023-03-24T01:20:09;99623.69;;;13.31;85.15
76404;BME280;65232;48.358;2.122;2023-03-24T01:20:38;99631.06;;;13.29;85.18
76404;BME280;65232;48.358;2.122;2023-03-24T01:21:06;99623.53;;;13.25;85.43
76404;BME280;65232;48.358;2.122;2023-03-24T01:21:32;99626.91;;;13.19;85.72
76404;BME280;65232;48.358;2.122;2023-03-24T01:21:59;99616.81;;;13.21;85.93
76404;BME280;65232;48.358;2.122;2023-03-24T01:22:28;99605.38;;;13.27;85.55
76404;BME280;65232;48.358;2.122;2023-03-24T01:22:54;99599.88;;;13.20;85.79
76404;BME280;65232;48.358;2.122;2023-03-24T01:23:22;99591.63;;;13.22;85.75
76404;BME280;65232;48.358;2.122;2023-03-24T01:23:48;99595.47;;;13.27;85.53
76404;BME280;65232;48.358;2.122;2023-03-24T01:24:13;99587.75;;;13.32;85.11
76404;BME280;65232;48.358;2.122;2023-03-24T01:24:39;99589.59;;;13.32;85.51
76404;BME280;65232;48.358;2.122;2023-03-24T01:25:06;99585.56;;;13.28;85.29
76404;BME280;65232;48.358;2.122;2023-03-24T01:25:35;99589.94;;;13.29;85.33
76404;BME280;65232;48.358;2.122;2023-03-24T01:26:06;99587.75;;;13.24;85.47
76404;BME280;65232;48.358;2.122;2023-03-24T01:26:32;99587.94;;;13.23;85.67
76404;BME280;65232;48.358;2.122;2023-03-24T01:26:58;99589.59;;;13.24;85.69
76404;BME280;65232;48.358;2.122;2023-03-24T01:27:23;99591.31;;;13.17;85.63
76404;BME280;65232;48.358;2.122;2023-03-24T01:27:50;99594.84;;;13.17;85.82
76404;BME280;65232;48.358;2.122;2023-03-24T01:28:19;99596.66;;;13.25;85.58
76404;BME280;65232;48.358;2.122;2023-03-24T01:28:49;99594.81;;;13.25;85.54
76404;BME280;65232;48.358;2.122;2023-03-24T01:29:14;99614.78;;;13.23;85.42
76404;BME280;65232;48.358;2.122;2023-03-24T01:29:41;99617.19;;;13.18;85.73
76404;BME280;65232;48.358;2.122;2023-03-24T01:30:07;99625.06;;;13.19;85.63
76404;BME280;65232;48.358;2.122;2023-03-24T01:30:33;99634.59;;;13.22;85.66
76404;BME280;65232;48.358;2.122;2023-03-24T01:30:58;99622.38;;;13.19;85.77
76404;BME280;65232;48.358;2.122;2023-03-24T01:31:24;99632.59;;;13.24;85.71
76404;BME280;65232;48.358;2.122;2023-03-24T01:31:50;99637.63;;;13.27;85.73
76404;BME280;65232;48.358;2.122;2023-03-24T01:32:15;99621.19;;;13.22;85.61
76404;BME280;65232;48.358;2.122;2023-03-24T01:32:41;99632.63;;;13.16;86.03
76404;BME280;65232;48.358;2.122;2023-03-24T01:33:07;99624.88;;;13.13;86.02
76404;BME280;65232;48.358;2.122;2023-03-24T01:33:33;99638.47;;;13.11;86.55
76404;BME280;65232;48.358;2.122;2023-03-24T01:33:58;99644.88;;;13.18;86.04
76404;BME280;65232;48.358;2.122;2023-03-24T01:34:24;99639.50;;;13.18;85.91
76404;BME280;65232;48.358;2.122;2023-03-24T01:34:49;99636.47;;;13.21;85.80
76404;BME280;65232;48.358;2.122;2023-03-24T01:35:15;99648.72;;;13.24;85.92
76404;BME280;65232;48.358;2.122;2023-03-24T01:35:41;99661.31;;;13.23;85.83
76404;BME280;65232;48.358;2.122;2023-03-24T01:36:08;99666.22;;;13.20;86.00
76404;BME280;65232;48.358;2.122;2023-03-24T01:36:34;99666.84;;;13.22;85.97
76404;BME280;65232;48.358;2.122;2023-03-24T01:37:00;99674.56;;;13.25;85.94
76404;BME280;65232;48.358;2.122;2023-03-24T01:37:25;99679.09;;;13.24;85.80
76404;BME280;65232;48.358;2.122;2023-03-24T01:37:51;99674.91;;;13.22;85.89
76404;BME280;65232;48.358;2.122;2023-03-24T01:38:17;99676.41;;;13.24;85.81
76404;BME280;65232;48.358;2.122;2023-03-24T01:38:43;99675.13;;;13.20;86.05
76404;BME280;65232;48.358;2.122;2023-03-24T01:39:08;99682.66;;;13.17;86.04
76404;BME280;65232;48.358;2.122;2023-03-24T01:39:33;99680.50;;;13.20;86.17
76404;BME280;65232;48.358;2.122;2023-03-24T01:39:59;99674.75;;;13.23;85.98
76404;BME280;65232;48.358;2.122;2023-03-24T01:40:30;99677.78;;;13.20;86.12
76404;BME280;65232;48.358;2.122;2023-03-24T01:40:55;99675.44;;;13.17;86.32
76404;BME280;65232;48.358;2.122;2023-03-24T01:41:21;99686.50;;;13.22;86.03
76404;BME280;65232;48.358;2.122;2023-03-24T01:41:46;99677.44;;;13.23;86.27
76404;BME280;65232;48.358;2.122;2023-03-24T01:42:20;99668.22;;;13.18;86.11
76404;BME280;65232;48.358;2.122;2023-03-24T01:42:47;99673.44;;;13.19;85.72
76404;BME280;65232;48.358;2.122;2023-03-24T01:43:21;99664.16;;;13.14;86.39
76404;BME280;65232;48.358;2.122;2023-03-24T01:43:47;99663.31;;;13.13;86.43
76404;BME280;65232;48.358;2.122;2023-03-24T01:44:33;99669.53;;;13.14;86.27
76404;BME280;65232;48.358;2.122;2023-03-24T01:45:01;99678.59;;;13.13;86.53
76404;BME280;65232;48.358;2.122;2023-03-24T01:46:04;99676.28;;;13.18;86.45
76404;BME280;65232;48.358;2.122;2023-03-24T01:46:31;99677.25;;;13.25;86.17
76404;BME280;65232;48.358;2.122;2023-03-24T01:46:59;99684.31;;;13.26;86.08
76404;BME280;65232;48.358;2.122;2023-03-24T01:47:25;99675.75;;;13.22;85.90
76404;BME280;65232;48.358;2.122;2023-03-24T01:47:52;99668.22;;;13.18;86.22
76404;BME280;65232;48.358;2.122;2023-03-24T01:48:21;99670.53;;;13.13;86.42
76404;BME280;65232;48.358;2.122;2023-03-24T01:48:51;99673.56;;;13.10;86.45
76404;BME280;65232;48.358;2.122;2023-03-24T01:49:17;99673.25;;;13.04;86.94
76404;BME280;65232;48.358;2.122;2023-03-24T01:49:50;99661.84;;;13.02;86.97
76404;BME280;65232;48.358;2.122;2023-03-24T01:50:16;99679.47;;;13.05;86.95
76404;BME280;65232;48.358;2.122;2023-03-24T01:50:50;99678.59;;;13.13;86.98
76404;BME280;65232;48.358;2.122;2023-03-24T01:51:24;99663.31;;;13.13;86.63
76404;BME280;65232;48.358;2.122;2023-03-24T01:51:54;99672.72;;;13.09;87.08
76404;BME280;65232;48.358;2.122;2023-03-24T01:52:24;99675.44;;;13.17;86.79
76404;BME280;65232;48.358;2.122;2023-03-24T01:52:50;99669.88;;;13.11;86.82
76404;BME280;65232;48.358;2.122;2023-03-24T01:53:16;99677.47;;;13.15;86.79
76404;BME280;65232;48.358;2.122;2023-03-24T01:53:44;99675.28;;;13.19;86.53
76404;BME280;65232;48.358;2.122;2023-03-24T01:54:39;99674.91;;;13.22;86.27
76404;BME280;65232;48.358;2.122;2023-03-24T01:55:12;99677.59;;;13.22;86.53
76404;BME280;65232;48.358;2.122;2023-03-24T01:55:42;99675.13;;;13.20;86.34
76404;BME280;65232;48.358;2.122;2023-03-24T01:56:11;99674.06;;;13.21;86.45
76404;BME280;65232;48.358;2.122;2023-03-24T01:56:44;99665.16;;;13.21;86.22
76404;BME280;65232;48.358;2.122;2023-03-24T01:57:17;99664.38;;;13.20;86.34
76404;BME280;65232;48.358;2.122;2023-03-24T01:57:49;99667.22;;;13.19;86.52
76404;BME280;65232;48.358;2.122;2023-03-24T01:58:16;99660.84;;;13.20;86.49
76404;BME280;65232;48.358;2.122;2023-03-24T01:58:55;99657.28;;;13.27;86.32
76404;BME280;65232;48.358;2.122;2023-03-24T01:59:51;99663.69;;;13.18;86.60
76404;BME280;65232;48.358;2.122;2023-03-24T02:00:40;99652.59;;;13.13;86.67
76404;BME280;65232;48.358;2.122;2023-03-24T02:01:32;99647.06;;;13.15;86.50
76404;BME280;65232;48.358;2.122;2023-03-24T02:02:07;99646.91;;;13.16;86.73
76404;BME280;65232;48.358;2.122;2023-03-24T02:02:48;99641.84;;;13.13;86.53
76404;BME280;65232;48.358;2.122;2023-03-24T02:03:24;99644.22;;;13.16;86.94
76404;BME280;65232;48.358;2.122;2023-03-24T02:03:55;99644.19;;;13.24;86.59
76404;BME280;65232;48.358;2.122;2023-03-24T02:04:23;99648.88;;;13.30;86.27
76404;BME280;65232;48.358;2.122;2023-03-24T02:04:53;99650.56;;;13.31;85.98
76404;BME280;65232;48.358;2.122;2023-03-24T02:05:28;99649.72;;;13.31;86.16
76404;BME280;65232;48.358;2.122;2023-03-24T02:05:54;99650.38;;;13.33;85.95
76404;BME280;65232;48.358;2.122;2023-03-24T02:06:22;99650.56;;;13.31;85.73
76404;BME280;65232;48.358;2.122;2023-03-24T02:06:52;99647.38;;;13.28;85.95
76404;BME280;65232;48.358;2.122;2023-03-24T02:07:52;99641.00;;;13.21;86.47
76404;BME280;65232;48.358;2.122;2023-03-24T02:08:31;99635.47;;;13.14;86.60
76404;BME280;65232;48.358;2.122;2023-03-24T02:08:59;99642.69;;;13.14;86.68
76404;BME280;65232;48.358;2.122;2023-03-24T02:09:26;99625.25;;;13.18;86.49
76404;BME280;65232;48.358;2.122;2023-03-24T02:09:52;99621.72;;;13.17;86.42
76404;BME280;65232;48.358;2.122;2023-03-24T02:10:18;99615.34;;;13.18;86.50
76404;BME280;65232;48.358;2.122;2023-03-24T02:10:45;99613.13;;;13.14;86.48
76404;BME280;65232;48.358;2.122;2023-03-24T02:11:11;99624.72;;;13.14;86.45
76404;BME280;65232;48.358;2.122;2023-03-24T02:11:50;99630.09;;;13.14;86.34
76404;BME280;65232;48.358;2.122;2023-03-24T02:12:16;99637.81;;;13.09;86.44
76404;BME280;65232;48.358;2.122;2023-03-24T02:12:43;99636.84;;;13.02;87.24
76404;BME280;65232;48.358;2.122;2023-03-24T02:13:10;99631.97;;;13.05;87.32
76404;BME280;65232;48.358;2.122;2023-03-24T02:13:36;99631.28;;;13.03;87.26
76404;BME280;65232;48.358;2.122;2023-03-24T02:14:03;99637.84;;;13.01;87.38
76404;BME280;65232;48.358;2.122;2023-03-24T02:14:28;99631.63;;;13.00;87.31
76404;BME280;65232;48.358;2.122;2023-03-24T02:14:54;99650.44;;;13.00;87.51
76404;BME280;65232;48.358;2.122;2023-03-24T02:15:20;99640.34;;;13.02;87.43
76404;BME280;65232;48.358;2.122;2023-03-24T02:17:58;99650.09;;;13.03;87.30
76404;BME280;65232;48.358;2.122;2023-03-24T02:19:59;99649.25;;;13.19;86.49
76404;BME280;65232;48.358;2.122;2023-03-24T02:21:45;99655.13;;;13.15;86.24
76404;BME280;65232;48.358;2.122;2023-03-24T02:23:43;99665.84;;;13.23;86.14
76404;BME280;65232;48.358;2.122;2023-03-24T02:28:41;99680.66;;;13.19;86.40
76404;BME280;65232;48.358;2.122;2023-03-24T02:30:32;99678.78;;;13.27;86.07
76404;BME280;65232;48.358;2.122;2023-03-24T02:31:14;99667.38;;;13.17;86.40
76404;BME280;65232;48.358;2.122;2023-03-24T02:36:15;99667.03;;;13.12;86.75
76404;BME280;65232;48.358;2.122;2023-03-24T02:37:09;99661.81;;;13.11;86.77
76404;BME280;65232;48.358;2.122;2023-03-24T02:38:23;99664.38;;;13.20;86.67
76404;BME280;65232;48.358;2.122;2023-03-24T02:39:05;99662.84;;;13.18;86.51
76404;BME280;65232;48.358;2.122;2023-03-24T02:40:45;99651.28;;;13.17;86.67
76404;BME280;65232;48.358;2.122;2023-03-24T02:41:47;99642.50;;;13.07;86.96
76404;BME280;65232;48.358;2.122;2023-03-24T02:42:26;99659.47;;;13.07;87.03
76404;BME280;65232;48.358;2.122;2023-03-24T02:43:01;99651.56;;;13.14;86.76
76404;BME280;65232;48.358;2.122;2023-03-24T02:46:45;99653.94;;;13.17;86.39
76404;BME280;65232;48.358;2.122;2023-03-24T02:47:24;99652.59;;;13.13;86.36
76404;BME280;65232;48.358;2.122;2023-03-24T02:48:20;99649.72;;;13.06;86.56
76404;BME280;65232;48.358;2.122;2023-03-24T02:49:28;99652.94;;;13.02;87.04
76404;BME280;65232;48.358;2.122;2023-03-24T02:50:06;99659.63;;;13.06;87.04
76404;BME280;65232;48.358;2.122;2023-03-24T02:50:49;99650.94;;;13.04;87.23
76404;BME280;65232;48.358;2.122;2023-03-24T02:51:16;99657.28;;;13.11;86.75
76404;BME280;65232;48.358;2.122;2023-03-24T02:51:59;99652.56;;;13.21;86.16
76404;BME280;65232;48.358;2.122;2023-03-24T02:52:39;99667.06;;;13.20;86.25
76404;BME280;65232;48.358;2.122;2023-03-24T02:53:17;99655.97;;;13.15;86.26
76404;BME280;65232;48.358;2.122;2023-03-24T02:54:39;99655.13;;;13.15;86.37
76404;BME280;65232;48.358;2.122;2023-03-24T02:55:21;99661.00;;;13.18;86.26
76404;BME280;65232;48.358;2.122;2023-03-24T02:57:07;99658.78;;;13.14;86.67
76404;BME280;65232;48.358;2.122;2023-03-24T02:58:07;99662.16;;;13.07;86.58
76404;BME280;65232;48.358;2.122;2023-03-24T02:58:50;99661.81;;;13.11;86.55
76404;BME280;65232;48.358;2.122;2023-03-24T02:59:21;99664.38;;;13.04;86.76